Time;durP1;ratioP1;P1;durP2;ratioP2;P2;SDS_P1;SDS_P2;PMS_P1;PMS_P2;Temp;Humidity;BMP_temperature;BMP_pressure;BME280_temperature;BME280_humidity;BME280_pressure;Samples;Min_cycle;Max_cycle;Signal;HPM_P1;HPM_P2
2024/01/21 00:00:12;;;;;;;13.48;6.15;;;0.30;99.90;;;;;;5079328;28;20052;-63
2024/01/21 00:02:38;;;;;;;11.18;5.47;;;0.30;99.90;;;;;;5079926;28;20040;-63
2024/01/21 00:05:04;;;;;;;11.35;5.05;;;0.30;99.90;;;;;;5061528;28;20522;-63
2024/01/21 00:07:30;;;;;;;10.30;5.32;;;0.30;99.90;;;;;;5062324;28;20417;-63
2024/01/21 00:09:55;;;;;;;12.00;5.00;;;0.30;99.90;;;;;;5078953;28;20094;-63
2024/01/21 00:12:21;;;;;;;12.88;5.57;;;0.30;99.90;;;;;;5078349;28;20048;-63
2024/01/21 00:14:47;;;;;;;11.88;5.50;;;0.40;99.90;;;;;;5079686;28;20098;-63
2024/01/21 00:17:12;;;;;;;12.13;5.70;;;0.40;99.90;;;;;;5061052;28;20492;-64
2024/01/21 00:19:39;;;;;;;14.02;6.18;;;0.30;99.90;;;;;;5061604;28;20044;-63
2024/01/21 00:22:05;;;;;;;13.68;6.03;;;0.40;99.90;;;;;;5079747;28;20040;-63
2024/01/21 00:24:31;;;;;;;11.27;5.38;;;0.30;99.90;;;;;;5079693;28;20057;-63
2024/01/21 00:26:57;;;;;;;13.13;6.32;;;0.40;99.90;;;;;;5061546;28;20059;-63
2024/01/21 00:29:23;;;;;;;12.98;5.65;;;0.30;99.90;;;;;;5079499;28;20048;-63
2024/01/21 00:31:48;;;;;;;11.63;5.65;;;0.30;99.90;;;;;;5079279;28;20085;-64
2024/01/21 00:34:14;;;;;;;13.40;6.10;;;0.40;99.90;;;;;;5078974;28;20037;-63
2024/01/21 00:36:40;;;;;;;11.95;5.47;;;0.30;99.90;;;;;;5079000;28;20093;-63
2024/01/21 00:39:06;;;;;;;10.48;5.40;;;0.30;99.90;;;;;;5079226;28;20045;-64
2024/01/21 00:41:31;;;;;;;11.95;5.80;;;0.30;99.90;;;;;;5079454;28;20338;-63
2024/01/21 00:43:57;;;;;;;12.27;5.53;;;0.30;99.90;;;;;;5079428;28;20040;-63
2024/01/21 00:46:23;;;;;;;12.30;5.68;;;0.30;99.90;;;;;;5079302;28;20041;-63
2024/01/21 00:48:49;;;;;;;12.93;6.35;;;0.30;99.90;;;;;;5078907;28;20098;-63
2024/01/21 00:51:15;;;;;;;11.20;5.55;;;0.30;99.90;;;;;;5078872;28;20080;-63
2024/01/21 00:53:40;;;;;;;12.65;5.95;;;0.30;99.90;;;;;;5078848;28;20040;-63
2024/01/21 00:56:06;;;;;;;12.93;6.50;;;0.30;99.90;;;;;;5078806;28;20059;-64
2024/01/21 00:58:32;;;;;;;12.30;5.72;;;0.30;99.90;;;;;;5079175;28;20047;-64
2024/01/21 01:00:57;;;;;;;11.95;5.68;;;0.30;99.90;;;;;;5060592;28;20041;-63
2024/01/21 01:03:24;;;;;;;12.65;5.30;;;0.30;99.90;;;;;;5078981;28;20048;-63
2024/01/21 01:05:50;;;;;;;14.13;6.32;;;0.30;99.90;;;;;;5078401;28;20052;-63
2024/01/21 01:08:17;;;;;;;12.98;6.15;;;0.30;99.90;;;;;;5078804;28;20059;-63
2024/01/21 01:10:43;;;;;;;11.38;5.97;;;0.30;99.90;;;;;;5078741;28;20123;-63
2024/01/21 01:13:09;;;;;;;11.65;5.90;;;0.30;99.90;;;;;;5078597;28;20514;-63
2024/01/21 01:15:35;;;;;;;11.32;5.38;;;0.30;99.90;;;;;;5078942;28;20044;-64
2024/01/21 01:18:02;;;;;;;13.27;6.47;;;0.30;99.90;;;;;;5078434;28;20093;-63
2024/01/21 01:20:27;;;;;;;14.23;6.60;;;0.30;99.90;;;;;;5078819;28;20127;-64
2024/01/21 01:22:53;;;;;;;14.00;6.13;;;0.30;99.90;;;;;;5078764;28;20079;-63
2024/01/21 01:25:19;;;;;;;11.45;5.68;;;0.30;99.90;;;;;;5060471;28;20076;-63
2024/01/21 01:27:45;;;;;;;12.85;6.03;;;0.30;99.90;;;;;;5077040;28;20056;-64
2024/01/21 01:30:11;;;;;;;11.57;5.68;;;0.30;99.90;;;;;;5078621;28;20073;-64
2024/01/21 01:32:36;;;;;;;13.95;5.72;;;0.40;99.90;;;;;;5077061;28;20041;-63
2024/01/21 01:35:04;;;;;;;11.90;5.90;;;0.40;99.90;;;;;;5078308;28;20037;-62
2024/01/21 01:37:30;;;;;;;13.73;6.47;;;0.40;99.90;;;;;;5078848;28;20045;-63
2024/01/21 01:39:56;;;;;;;13.73;6.47;;;0.50;99.90;;;;;;5078523;28;20422;-62
2024/01/21 01:42:22;;;;;;;13.73;6.32;;;0.50;99.90;;;;;;5078432;28;20051;-63
2024/01/21 01:44:47;;;;;;;12.23;5.13;;;0.50;99.90;;;;;;5078012;28;20037;-62
2024/01/21 01:47:13;;;;;;;12.07;6.13;;;0.50;99.90;;;;;;5078303;28;20036;-63
2024/01/21 01:49:42;;;;;;;12.05;5.65;;;0.60;99.90;;;;;;5078054;28;20052;-62
2024/01/21 01:52:12;;;;;;;13.57;5.88;;;0.60;99.90;;;;;;5078240;28;20569;-63
2024/01/21 01:54:39;;;;;;;12.65;6.93;;;0.60;99.90;;;;;;5060560;28;20059;-63
2024/01/21 01:57:07;;;;;;;11.05;5.35;;;0.60;99.90;;;;;;5060168;28;20055;-63
2024/01/21 01:59:34;;;;;;;9.90;5.07;;;0.40;99.90;;;;;;5078096;28;20043;-63
2024/01/21 02:02:00;;;;;;;13.07;5.53;;;0.60;99.90;;;;;;5059869;28;20055;-63
2024/01/21 02:04:26;;;;;;;12.93;5.25;;;0.60;99.90;;;;;;5078047;28;20048;-63
2024/01/21 02:06:52;;;;;;;9.77;4.80;;;0.60;99.90;;;;;;5060064;28;20052;-63
2024/01/21 02:09:18;;;;;;;10.77;5.07;;;0.60;99.90;;;;;;5076865;28;20075;-62
2024/01/21 02:11:44;;;;;;;11.18;4.97;;;0.60;99.90;;;;;;5078158;28;20048;-62
2024/01/21 02:14:10;;;;;;;10.73;4.85;;;0.60;99.90;;;;;;5077532;28;20049;-63
2024/01/21 02:16:36;;;;;;;9.88;4.82;;;0.70;95.80;;;;;;5077393;28;20037;-63
2024/01/21 02:19:06;;;;;;;9.60;4.20;;;0.70;96.10;;;;;;5077807;28;20553;-63
2024/01/21 02:21:32;;;;;;;10.95;4.88;;;0.80;93.10;;;;;;5078232;28;20062;-63
2024/01/21 02:23:58;;;;;;;10.45;4.75;;;0.80;85.50;;;;;;5060061;28;20048;-63
2024/01/21 02:26:23;;;;;;;9.25;3.85;;;0.80;88.10;;;;;;5060295;28;20074;-63
2024/01/21 02:28:49;;;;;;;9.60;4.47;;;0.80;85.10;;;;;;5077956;28;20083;-63
2024/01/21 02:31:14;;;;;;;9.38;4.22;;;0.90;78.90;;;;;;5078074;28;20055;-62
2024/01/21 02:33:40;;;;;;;8.13;4.00;;;0.90;83.20;;;;;;5062749;28;20087;-63
2024/01/21 02:36:06;;;;;;;9.13;4.00;;;0.90;89.30;;;;;;5081160;28;20051;-63
2024/01/21 02:38:32;;;;;;;9.93;4.47;;;0.90;88.30;;;;;;5081607;28;20036;-63
2024/01/21 02:40:57;;;;;;;9.30;4.70;;;0.90;91.20;;;;;;5081254;28;20093;-63
2024/01/21 02:43:23;;;;;;;10.35;4.18;;;0.80;92.40;;;;;;5079996;28;20053;-63
2024/01/21 02:45:48;;;;;;;9.85;4.35;;;0.80;94.30;;;;;;5063512;28;20048;-63
2024/01/21 02:48:14;;;;;;;8.88;3.75;;;0.80;95.20;;;;;;5081645;28;20087;-63
2024/01/21 02:50:40;;;;;;;8.95;3.80;;;0.80;93.70;;;;;;5081222;28;20041;-62
2024/01/21 02:53:05;;;;;;;9.80;4.50;;;0.80;95.40;;;;;;5063008;28;20056;-63
2024/01/21 02:55:31;;;;;;;9.55;4.45;;;0.80;95.80;;;;;;5081306;28;20044;-62
2024/01/21 02:57:57;;;;;;;8.48;3.90;;;0.80;96.10;;;;;;5080972;28;20033;-63
2024/01/21 03:00:22;;;;;;;9.25;3.95;;;0.80;96.50;;;;;;5081241;28;20046;-63
2024/01/21 03:02:49;;;;;;;9.05;4.30;;;0.80;95.90;;;;;;5080929;28;20063;-63
2024/01/21 03:05:15;;;;;;;8.90;3.97;;;0.90;93.50;;;;;;5063128;28;20378;-63
2024/01/21 03:07:41;;;;;;;9.65;4.18;;;0.90;94.70;;;;;;5063381;28;20078;-63
2024/01/21 03:10:07;;;;;;;9.38;4.03;;;0.80;95.90;;;;;;5081028;28;20083;-63
2024/01/21 03:12:35;;;;;;;9.65;4.38;;;0.90;94.50;;;;;;5062648;28;20045;-63
2024/01/21 03:15:01;;;;;;;10.13;4.57;;;0.90;96.00;;;;;;5080497;28;20059;-63
2024/01/21 03:17:26;;;;;;;8.10;3.70;;;0.90;93.30;;;;;;5080401;28;20057;-62
2024/01/21 03:19:53;;;;;;;8.38;3.63;;;0.90;92.60;;;;;;5080707;28;20106;-63
2024/01/21 03:22:19;;;;;;;9.98;4.20;;;0.90;94.60;;;;;;5081010;28;20418;-62
2024/01/21 03:24:44;;;;;;;9.70;3.72;;;0.90;92.70;;;;;;5079740;28;20044;-62
2024/01/21 03:27:11;;;;;;;9.45;3.53;;;0.90;95.30;;;;;;5080414;28;20043;-63
2024/01/21 03:29:37;;;;;;;8.75;3.47;;;0.80;98.10;;;;;;5062608;28;20095;-63
2024/01/21 03:32:03;;;;;;;8.18;3.50;;;0.80;96.20;;;;;;5080737;28;20041;-63
2024/01/21 03:34:28;;;;;;;8.00;3.40;;;0.80;98.70;;;;;;5080128;28;20552;-62
2024/01/21 03:36:54;;;;;;;8.35;3.65;;;0.80;95.50;;;;;;5080560;28;20045;-63
2024/01/21 03:39:20;;;;;;;8.10;3.58;;;0.80;95.20;;;;;;5080785;28;20044;-63
2024/01/21 03:41:45;;;;;;;9.27;3.28;;;0.80;95.00;;;;;;5080372;28;20099;-63
2024/01/21 03:44:11;;;;;;;8.05;3.40;;;0.70;96.00;;;;;;5080758;28;20047;-62
2024/01/21 03:46:37;;;;;;;9.60;3.70;;;0.70;96.70;;;;;;5080376;28;20041;-63
2024/01/21 03:49:02;;;;;;;9.85;3.90;;;0.90;96.20;;;;;;5080197;28;20049;-63
2024/01/21 03:51:28;;;;;;;8.93;3.65;;;0.70;96.10;;;;;;5079518;28;20044;-63
2024/01/21 03:53:54;;;;;;;7.93;3.08;;;0.70;95.90;;;;;;5080204;28;20048;-62
2024/01/21 03:56:19;;;;;;;8.88;2.90;;;0.70;95.70;;;;;;5079888;28;20040;-62
2024/01/21 03:58:46;;;;;;;9.30;4.07;;;0.70;94.10;;;;;;5080204;28;20106;-63
2024/01/21 04:01:11;;;;;;;9.13;3.30;;;0.70;92.80;;;;;;5078661;28;20041;-63
2024/01/21 04:03:37;;;;;;;6.53;2.58;;;0.70;94.60;;;;;;5078910;28;20350;-62
2024/01/21 04:06:03;;;;;;;6.65;2.72;;;0.70;95.40;;;;;;5079236;28;20045;-63
2024/01/21 04:08:29;;;;;;;7.03;3.28;;;0.70;96.60;;;;;;5079358;28;20052;-62
2024/01/21 04:10:54;;;;;;;9.30;3.42;;;0.60;96.50;;;;;;5079940;28;20048;-63
2024/01/21 04:13:21;;;;;;;7.80;2.80;;;0.60;97.40;;;;;;5061809;28;20048;-63
2024/01/21 04:15:47;;;;;;;7.65;2.65;;;0.60;98.90;;;;;;5061659;28;20079;-63
2024/01/21 04:18:13;;;;;;;6.90;2.60;;;0.60;99.90;;;;;;5079773;28;20041;-62
2024/01/21 04:20:39;;;;;;;6.55;2.72;;;0.60;99.90;;;;;;5079572;28;20072;-62
2024/01/21 04:23:04;;;;;;;8.40;3.28;;;0.60;99.90;;;;;;5079638;28;20376;-63
2024/01/21 04:25:30;;;;;;;7.00;3.10;;;0.60;99.80;;;;;;5079188;28;20044;-63
2024/01/21 04:27:56;;;;;;;8.50;2.70;;;0.50;99.90;;;;;;5079510;28;20052;-62
2024/01/21 04:30:21;;;;;;;7.10;2.63;;;0.60;99.90;;;;;;5079341;28;20040;-63
2024/01/21 04:32:47;;;;;;;7.25;2.80;;;0.60;98.70;;;;;;5079802;28;20179;-62
2024/01/21 04:35:13;;;;;;;8.45;2.53;;;0.60;99.80;;;;;;5079341;28;20259;-62
2024/01/21 04:37:39;;;;;;;6.53;2.38;;;0.70;98.30;;;;;;5061225;28;20037;-63
2024/01/21 04:40:05;;;;;;;7.03;2.60;;;0.70;97.60;;;;;;5061167;28;20048;-62
2024/01/21 04:42:31;;;;;;;7.10;2.15;;;0.70;96.00;;;;;;5079145;28;20040;-62
2024/01/21 04:44:56;;;;;;;6.35;2.70;;;0.70;93.30;;;;;;5079332;28;20100;-63
2024/01/21 04:47:23;;;;;;;6.05;2.35;;;0.80;88.10;;;;;;5044370;28;20055;-63
2024/01/21 04:49:48;;;;;;;9.18;2.55;;;0.90;90.20;;;;;;5079298;28;20074;-62
2024/01/21 04:52:14;;;;;;;5.93;2.28;;;0.90;76.20;;;;;;5079317;28;20603;-63
2024/01/21 04:54:40;;;;;;;6.53;2.50;;;1.00;75.30;;;;;;5060982;28;20044;-62
2024/01/21 04:57:05;;;;;;;6.35;2.38;;;1.00;74.70;;;;;;5078586;28;20127;-62
2024/01/21 04:59:31;;;;;;;5.00;2.25;;;1.10;66.10;;;;;;5078778;28;20076;-63
2024/01/21 05:01:56;;;;;;;6.57;2.33;;;1.10;60.90;;;;;;5061071;28;20115;-63
2024/01/21 05:04:22;;;;;;;5.15;1.88;;;1.20;64.60;;;;;;5060635;28;20048;-62
2024/01/21 05:06:48;;;;;;;6.25;2.28;;;1.10;64.90;;;;;;5078833;28;20044;-62
2024/01/21 05:09:13;;;;;;;6.70;2.78;;;1.20;63.70;;;;;;5078806;28;20049;-63
2024/01/21 05:11:39;;;;;;;6.85;2.50;;;1.30;59.20;;;;;;5078960;28;20052;-62
2024/01/21 05:14:05;;;;;;;7.05;2.50;;;1.30;68.20;;;;;;5078957;28;20055;-62
2024/01/21 05:16:30;;;;;;;7.68;2.60;;;1.20;68.60;;;;;;5078595;28;20059;-62
2024/01/21 05:18:56;;;;;;;7.15;2.60;;;1.20;63.50;;;;;;5078321;28;20073;-62
2024/01/21 05:21:22;;;;;;;6.07;2.35;;;1.30;69.40;;;;;;5060215;28;20540;-62
2024/01/21 05:23:50;;;;;;;7.82;2.65;;;1.20;63.60;;;;;;5060562;28;20051;-62
2024/01/21 05:26:16;;;;;;;6.47;2.30;;;1.20;66.70;;;;;;5078440;28;20040;-62
2024/01/21 05:28:41;;;;;;;6.05;1.92;;;1.20;71.50;;;;;;5078926;28;20040;-62
2024/01/21 05:31:07;;;;;;;6.55;2.38;;;1.20;67.00;;;;;;5078612;28;20092;-62
2024/01/21 05:33:33;;;;;;;6.82;2.70;;;1.20;69.50;;;;;;5060886;28;20070;-63
2024/01/21 05:35:59;;;;;;;7.07;2.58;;;1.20;71.10;;;;;;5060028;28;20079;-62
2024/01/21 05:38:25;;;;;;;6.35;2.30;;;1.20;77.40;;;;;;5078233;28;20036;-63
2024/01/21 05:40:50;;;;;;;7.78;2.75;;;1.20;76.80;;;;;;5078336;28;20062;-63
2024/01/21 05:43:16;;;;;;;7.15;2.60;;;1.20;77.90;;;;;;5077230;28;20058;-63
2024/01/21 05:45:41;;;;;;;6.60;2.60;;;1.20;71.90;;;;;;5060264;28;20072;-62
2024/01/21 05:48:07;;;;;;;7.10;2.47;;;1.10;70.40;;;;;;5060677;28;20043;-62
2024/01/21 05:50:33;;;;;;;7.45;2.45;;;1.20;78.70;;;;;;5060323;28;20500;-63
2024/01/21 05:52:59;;;;;;;8.27;3.03;;;1.20;78.40;;;;;;5078049;28;20040;-62
2024/01/21 05:55:24;;;;;;;5.93;2.38;;;1.10;76.60;;;;;;5078127;28;20407;-63
2024/01/21 05:57:50;;;;;;;6.25;2.40;;;1.10;74.60;;;;;;5078168;28;20124;-62
2024/01/21 06:00:16;;;;;;;5.93;2.55;;;1.10;85.60;;;;;;5076958;28;20047;-62
2024/01/21 06:02:43;;;;;;;6.85;2.38;;;1.10;80.80;;;;;;5078410;28;20523;-62
2024/01/21 06:05:09;;;;;;;6.53;2.33;;;1.20;79.30;;;;;;5078050;28;20072;-62
2024/01/21 06:07:34;;;;;;;8.68;3.17;;;1.20;78.50;;;;;;5061154;28;20032;-62
2024/01/21 06:10:00;;;;;;;6.32;2.47;;;1.20;78.80;;;;;;5081958;28;20056;-62
2024/01/21 06:12:25;;;;;;;6.78;2.30;;;1.20;83.90;;;;;;5082003;28;20041;-59
2024/01/21 06:14:51;;;;;;;6.30;2.60;;;1.20;80.40;;;;;;5081860;28;20079;-63
2024/01/21 06:17:17;;;;;;;7.82;2.78;;;1.10;79.40;;;;;;5081444;28;20445;-62
2024/01/21 06:19:42;;;;;;;6.88;2.90;;;1.20;79.50;;;;;;5081975;28;20083;-62
2024/01/21 06:22:08;;;;;;;7.07;2.85;;;1.10;84.60;;;;;;5082123;28;20051;-63
2024/01/21 06:24:35;;;;;;;8.35;3.08;;;1.10;86.60;;;;;;5082224;28;20037;-62
2024/01/21 06:27:01;;;;;;;7.47;2.97;;;1.10;92.80;;;;;;5081597;28;20096;-62
2024/01/21 06:29:27;;;;;;;8.27;3.08;;;1.10;89.80;;;;;;5063828;28;20664;-62
2024/01/21 06:31:52;;;;;;;7.57;3.15;;;1.10;87.70;;;;;;5081646;28;20029;-62
2024/01/21 06:34:18;;;;;;;8.13;2.70;;;1.10;92.10;;;;;;5081877;28;20072;-62
2024/01/21 06:36:43;;;;;;;8.48;3.33;;;1.00;92.50;;;;;;5063099;28;20507;-63
2024/01/21 06:39:09;;;;;;;7.13;3.00;;;1.10;91.40;;;;;;5078470;28;20044;-62
2024/01/21 06:41:35;;;;;;;8.93;3.47;;;1.00;91.00;;;;;;5059849;28;20163;-63
2024/01/21 06:44:00;;;;;;;7.88;3.00;;;1.10;91.70;;;;;;5078028;28;20045;-62
2024/01/21 06:46:26;;;;;;;7.15;3.10;;;1.00;92.10;;;;;;5077831;28;20040;-63
2024/01/21 06:48:52;;;;;;;9.88;3.30;;;1.00;91.70;;;;;;5077464;28;20036;-63
2024/01/21 06:51:32;;;;;;;8.13;3.20;;;1.00;94.40;;;;;;5076950;28;20082;-62
2024/01/21 06:54:00;;;;;;;9.73;3.00;;;1.00;94.30;;;;;;5077495;28;20044;-63
2024/01/21 06:56:26;;;;;;;7.80;3.55;;;1.00;95.50;;;;;;5077474;28;20055;-62
2024/01/21 06:58:53;;;;;;;9.23;3.58;;;1.00;97.50;;;;;;5077798;28;20439;-62
2024/01/21 07:01:18;;;;;;;9.52;3.47;;;0.90;94.80;;;;;;5077101;28;20100;-62
2024/01/21 07:03:45;;;;;;;8.50;3.55;;;1.00;95.10;;;;;;5058619;28;20087;-62
2024/01/21 07:06:11;;;;;;;8.88;3.40;;;1.00;98.20;;;;;;5076937;28;20337;-62
2024/01/21 07:08:38;;;;;;;10.32;4.13;;;1.00;98.20;;;;;;5076923;28;20454;-62
2024/01/21 07:11:10;;;;;;;7.55;2.80;;;0.90;99.90;;;;;;5077412;28;20104;-62
2024/01/21 07:13:36;;;;;;;8.52;3.58;;;1.00;99.00;;;;;;5077308;28;20057;-61
2024/01/21 07:16:02;;;;;;;8.73;3.20;;;1.00;99.10;;;;;;5059010;28;20213;-62
2024/01/21 07:18:28;;;;;;;7.68;2.80;;;1.00;98.50;;;;;;5076347;28;20064;-62
2024/01/21 07:20:54;;;;;;;7.60;3.20;;;1.00;98.10;;;;;;5077091;28;20049;-62
2024/01/21 07:23:20;;;;;;;8.88;3.88;;;1.00;99.90;;;;;;5076923;28;20424;-62
2024/01/21 07:25:47;;;;;;;7.28;3.40;;;1.00;99.90;;;;;;5076850;28;20212;-62
2024/01/21 07:28:13;;;;;;;11.68;3.75;;;0.90;99.90;;;;;;5076679;28;20037;-62
2024/01/21 07:30:39;;;;;;;8.48;3.95;;;1.00;99.90;;;;;;5076913;28;20048;-61
2024/01/21 07:33:05;;;;;;;8.70;3.83;;;1.00;99.90;;;;;;5076122;28;20056;-62
2024/01/21 07:35:31;;;;;;;9.27;3.85;;;1.00;99.90;;;;;;5058479;28;20511;-62
2024/01/21 07:37:56;;;;;;;9.55;3.65;;;1.00;99.90;;;;;;5076172;28;20044;-62
2024/01/21 07:40:22;;;;;;;9.93;4.07;;;1.00;99.90;;;;;;5076070;28;20110;-62
2024/01/21 07:42:48;;;;;;;7.40;3.60;;;0.80;99.90;;;;;;5076147;28;20091;-63
2024/01/21 07:45:14;;;;;;;8.38;3.90;;;1.00;99.90;;;;;;5076514;28;20085;-61
2024/01/21 07:47:40;;;;;;;8.95;4.18;;;1.00;99.90;;;;;;5041658;28;20040;-62
2024/01/21 07:50:07;;;;;;;8.65;3.83;;;1.00;99.90;;;;;;5076121;28;20120;-61
2024/01/21 07:52:33;;;;;;;10.20;4.00;;;1.10;99.90;;;;;;5057525;28;20051;-61
2024/01/21 07:54:58;;;;;;;8.95;3.75;;;1.10;99.90;;;;;;5056252;28;20048;-61
2024/01/21 07:57:24;;;;;;;8.02;3.40;;;1.10;99.90;;;;;;5056920;28;20047;-62
2024/01/21 07:59:50;;;;;;;9.23;3.90;;;1.10;99.90;;;;;;5075609;28;20108;-62
2024/01/21 08:02:16;;;;;;;9.82;4.35;;;1.00;99.90;;;;;;5073998;28;20071;-62
2024/01/21 08:04:42;;;;;;;10.52;4.65;;;1.00;99.90;;;;;;5057632;28;20128;-62
2024/01/21 08:07:08;;;;;;;8.88;4.20;;;1.10;99.90;;;;;;5076303;28;20501;-62
2024/01/21 08:09:34;;;;;;;10.02;3.38;;;1.10;99.90;;;;;;5058146;28;20052;-62
2024/01/21 08:12:00;;;;;;;8.35;3.67;;;1.10;99.90;;;;;;5076358;28;20054;-61
2024/01/21 08:14:25;;;;;;;9.48;4.38;;;1.10;99.90;;;;;;5057302;28;20045;-62
2024/01/21 08:16:51;;;;;;;8.65;3.92;;;1.10;99.90;;;;;;5075723;28;20048;-62
2024/01/21 08:19:19;;;;;;;9.48;3.83;;;1.20;99.90;;;;;;5075580;28;20049;-62
2024/01/21 08:21:48;;;;;;;9.45;4.53;;;1.20;99.90;;;;;;5075774;28;20171;-62
2024/01/21 08:24:14;;;;;;;8.68;4.13;;;1.20;99.90;;;;;;5076433;28;20477;-62
2024/01/21 08:26:40;;;;;;;11.60;4.65;;;1.30;99.90;;;;;;5075432;28;20492;-62
2024/01/21 08:29:05;;;;;;;10.57;4.38;;;1.30;99.90;;;;;;5074441;28;20070;-61
2024/01/21 08:31:31;;;;;;;8.57;4.10;;;1.30;99.90;;;;;;5073189;28;20044;-62
2024/01/21 08:33:57;;;;;;;9.40;4.38;;;1.40;99.90;;;;;;5041062;28;20052;-63
2024/01/21 08:36:22;;;;;;;8.98;4.35;;;1.40;99.90;;;;;;5075241;28;20079;-62
2024/01/21 08:38:48;;;;;;;8.80;3.90;;;1.50;99.90;;;;;;5075189;28;20044;-62
2024/01/21 08:41:14;;;;;;;10.23;4.43;;;1.40;99.90;;;;;;5057591;28;20052;-61
2024/01/21 08:43:40;;;;;;;9.55;4.00;;;1.40;99.90;;;;;;5075668;28;20071;-62
2024/01/21 08:46:07;;;;;;;9.60;4.45;;;1.50;99.90;;;;;;5074781;28;20044;-62
2024/01/21 08:48:32;;;;;;;11.15;4.88;;;1.50;99.90;;;;;;5057593;28;20076;-62
2024/01/21 08:51:00;;;;;;;10.70;4.70;;;1.50;99.90;;;;;;5056810;28;20044;-62
2024/01/21 08:53:25;;;;;;;9.43;4.30;;;1.50;99.90;;;;;;5075110;28;20052;-62
2024/01/21 08:55:51;;;;;;;10.73;4.40;;;1.50;99.90;;;;;;5074813;28;20082;-62
2024/01/21 08:58:17;;;;;;;9.07;4.25;;;1.50;99.90;;;;;;5057130;28;20060;-61
2024/01/21 09:00:42;;;;;;;11.77;5.25;;;1.50;99.90;;;;;;5075068;28;20102;-62
2024/01/21 09:03:08;;;;;;;11.23;4.45;;;1.50;99.90;;;;;;5073773;28;20045;-62
2024/01/21 09:05:34;;;;;;;9.60;4.43;;;1.50;99.90;;;;;;5074922;28;20050;-62
2024/01/21 09:07:59;;;;;;;11.07;5.10;;;1.50;99.90;;;;;;5075176;28;20045;-62
2024/01/21 09:10:25;;;;;;;10.32;4.78;;;1.50;99.90;;;;;;5074738;28;20044;-63
2024/01/21 09:12:50;;;;;;;10.95;4.97;;;1.50;99.90;;;;;;5073729;28;20059;-62
2024/01/21 09:15:21;;;;;;;9.65;4.70;;;1.50;99.90;;;;;;5056330;28;20045;-63
2024/01/21 09:17:48;;;;;;;9.90;5.07;;;1.60;99.90;;;;;;5075289;28;20055;-62
2024/01/21 09:20:13;;;;;;;9.27;4.85;;;1.60;99.90;;;;;;5075071;28;20059;-62
2024/01/21 09:22:39;;;;;;;12.48;5.45;;;1.60;99.90;;;;;;5074685;28;20041;-62
2024/01/21 09:25:05;;;;;;;12.90;5.20;;;1.70;99.90;;;;;;5074460;28;20043;-62
2024/01/21 09:27:31;;;;;;;12.18;5.20;;;1.70;99.90;;;;;;5055561;28;20575;-63
2024/01/21 09:29:56;;;;;;;11.40;5.20;;;1.70;99.90;;;;;;5056222;28;20081;-62
2024/01/21 09:32:22;;;;;;;11.38;4.70;;;1.80;99.90;;;;;;5074724;28;20044;-62
2024/01/21 09:34:48;;;;;;;11.20;4.63;;;1.90;99.90;;;;;;5074677;28;20048;-62
2024/01/21 09:37:13;;;;;;;9.48;4.60;;;1.90;99.90;;;;;;5040297;28;20041;-62
2024/01/21 09:39:39;;;;;;;11.93;4.78;;;1.90;99.90;;;;;;5074504;28;20659;-62
2024/01/21 09:42:08;;;;;;;11.40;5.57;;;1.90;99.90;;;;;;5074645;28;20045;-62
2024/01/21 09:44:34;;;;;;;10.02;4.85;;;2.00;99.90;;;;;;5074483;28;20078;-62
2024/01/21 09:47:01;;;;;;;7.88;4.13;;;2.00;99.90;;;;;;5074328;28;20052;-62
2024/01/21 09:49:27;;;;;;;11.35;5.60;;;2.10;99.90;;;;;;5074307;28;20047;-62
2024/01/21 09:51:54;;;;;;;12.13;6.10;;;2.10;99.90;;;;;;5074276;28;20144;-62
2024/01/21 09:54:21;;;;;;;10.77;5.68;;;2.10;99.90;;;;;;5074931;28;20052;-63
2024/01/21 09:56:48;;;;;;;10.63;4.75;;;2.10;99.90;;;;;;5074282;28;20059;-62
2024/01/21 09:59:15;;;;;;;10.10;5.00;;;2.20;99.90;;;;;;5074126;28;20032;-65
2024/01/21 10:01:41;;;;;;;12.05;5.15;;;2.20;99.90;;;;;;5055460;28;20063;-63
2024/01/21 10:04:08;;;;;;;11.40;5.03;;;2.20;99.90;;;;;;5073706;28;20060;-63
2024/01/21 10:06:35;;;;;;;12.35;5.13;;;2.30;99.90;;;;;;5056206;28;20530;-64
2024/01/21 10:09:16;;;;;;;13.35;5.03;;;2.30;99.90;;;;;;5074543;28;20091;-63
2024/01/21 10:11:42;;;;;;;11.73;5.57;;;2.30;99.90;;;;;;5074491;28;20064;-63
2024/01/21 10:14:08;;;;;;;10.65;5.03;;;2.40;99.90;;;;;;5073684;28;20086;-64
2024/01/21 10:16:34;;;;;;;11.55;5.10;;;2.50;99.90;;;;;;5073909;28;20045;-63
2024/01/21 10:19:00;;;;;;;11.35;5.40;;;2.50;99.90;;;;;;5074043;28;20067;-63
2024/01/21 10:21:25;;;;;;;11.57;5.18;;;2.50;99.90;;;;;;5074201;28;20049;-63
2024/01/21 10:23:51;;;;;;;13.38;5.60;;;2.60;99.90;;;;;;5072591;28;20284;-63
2024/01/21 10:26:17;;;;;;;11.02;5.38;;;2.60;99.90;;;;;;5055856;28;20044;-63
2024/01/21 10:28:43;;;;;;;12.70;6.05;;;2.60;99.90;;;;;;5074285;28;20082;-63
2024/01/21 10:31:09;;;;;;;11.98;5.70;;;2.70;99.90;;;;;;5074460;28;20082;-63
2024/01/21 10:33:35;;;;;;;12.68;6.10;;;2.70;99.90;;;;;;5074031;28;20040;-63
2024/01/21 10:36:01;;;;;;;10.93;5.88;;;2.70;99.90;;;;;;5055453;28;20059;-63
2024/01/21 10:38:32;;;;;;;11.73;5.93;;;2.70;99.90;;;;;;5055318;28;20041;-63
2024/01/21 10:41:00;;;;;;;12.27;5.28;;;2.70;99.90;;;;;;5073434;28;20052;-64
2024/01/21 10:43:29;;;;;;;12.23;5.55;;;2.70;99.90;;;;;;5073844;28;20051;-63
2024/01/21 10:45:56;;;;;;;12.27;6.85;;;2.80;99.90;;;;;;5074269;28;20040;-63
2024/01/21 10:48:22;;;;;;;13.27;6.47;;;2.80;99.90;;;;;;5055963;28;20093;-63
2024/01/21 10:50:51;;;;;;;13.70;7.03;;;2.80;99.90;;;;;;5054994;28;20052;-64
2024/01/21 10:53:17;;;;;;;12.85;6.60;;;2.90;99.90;;;;;;5074110;28;20055;-63
2024/01/21 10:55:44;;;;;;;13.50;6.38;;;3.00;99.90;;;;;;5058837;28;20041;-63
2024/01/21 10:58:10;;;;;;;13.90;6.55;;;2.90;99.90;;;;;;5076719;28;20385;-64
2024/01/21 11:00:38;;;;;;;12.57;6.45;;;3.00;99.90;;;;;;5059332;28;20068;-64
2024/01/21 11:03:26;;;;;;;16.90;7.32;;;3.10;99.90;;;;;;5076298;28;20036;-64
2024/01/21 11:05:54;;;;;;;14.02;6.63;;;3.10;99.90;;;;;;5058918;28;20052;-64
2024/01/21 11:08:23;;;;;;;14.45;6.38;;;3.00;99.90;;;;;;5077200;28;20040;-64
2024/01/21 11:10:57;;;;;;;13.30;6.65;;;3.10;99.90;;;;;;5077031;28;20159;-64
2024/01/21 11:13:45;;;;;;;13.48;6.40;;;3.10;99.90;;;;;;5079038;28;20076;-64
2024/01/21 11:16:26;;;;;;;12.25;5.82;;;3.00;99.90;;;;;;5080766;28;20099;-63
2024/01/21 11:19:09;;;;;;;15.30;6.65;;;3.10;99.90;;;;;;5080122;28;20078;-64
2024/01/21 11:21:41;;;;;;;15.75;6.85;;;3.20;99.90;;;;;;5079976;28;20052;-64
2024/01/21 11:24:13;;;;;;;13.73;6.25;;;3.20;99.90;;;;;;5080391;28;20120;-64
2024/01/21 11:26:43;;;;;;;13.02;6.47;;;3.10;99.90;;;;;;5080589;28;20063;-64
2024/01/21 11:29:32;;;;;;;12.23;6.13;;;3.10;99.90;;;;;;5062315;28;20052;-64
2024/01/21 11:32:01;;;;;;;15.05;7.03;;;3.30;99.90;;;;;;5080553;28;20062;-63
2024/01/21 11:34:29;;;;;;;11.50;6.20;;;3.20;99.90;;;;;;5079893;28;20070;-64
2024/01/21 11:36:56;;;;;;;13.80;7.93;;;3.30;99.90;;;;;;5062217;28;20104;-64
2024/01/21 11:39:21;;;;;;;14.05;6.53;;;3.10;99.90;;;;;;5080500;28;20261;-64
2024/01/21 11:41:48;;;;;;;13.45;6.10;;;3.20;99.90;;;;;;5062383;28;20136;-63
2024/01/21 11:44:22;;;;;;;11.60;5.85;;;3.10;99.90;;;;;;5079952;28;20032;-63
2024/01/21 11:46:49;;;;;;;14.18;7.20;;;3.40;99.90;;;;;;5062012;28;20100;-63
2024/01/21 11:49:15;;;;;;;11.05;6.43;;;3.30;99.90;;;;;;5079545;28;20055;-63
2024/01/21 11:51:42;;;;;;;14.07;6.80;;;3.00;99.90;;;;;;5080157;28;20068;-64
2024/01/21 11:54:08;;;;;;;13.30;6.60;;;3.00;99.90;;;;;;5080060;28;20047;-64
2024/01/21 11:56:37;;;;;;;14.68;6.68;;;3.20;99.90;;;;;;5079843;28;20044;-64
2024/01/21 11:59:08;;;;;;;14.50;7.25;;;3.30;99.90;;;;;;5079919;28;20045;-64
2024/01/21 12:01:38;;;;;;;14.15;7.90;;;3.40;99.90;;;;;;5079889;28;20048;-64
2024/01/21 12:04:08;;;;;;;15.07;7.32;;;3.00;99.90;;;;;;5061587;28;20040;-63
2024/01/21 12:06:55;;;;;;;14.02;7.00;;;3.20;99.90;;;;;;5078506;28;20040;-64
2024/01/21 12:09:22;;;;;;;13.40;6.97;;;3.50;99.90;;;;;;5061890;28;20128;-63
2024/01/21 12:11:49;;;;;;;13.45;6.90;;;3.40;99.90;;;;;;5080042;28;20041;-63
2024/01/21 12:14:16;;;;;;;14.80;7.00;;;3.30;99.90;;;;;;5079497;28;20074;-63
2024/01/21 12:16:42;;;;;;;14.57;7.70;;;3.30;99.90;;;;;;5061590;28;20072;-62
2024/01/21 12:19:08;;;;;;;14.65;8.07;;;3.50;99.90;;;;;;5078945;28;20109;-63
2024/01/21 12:21:34;;;;;;;15.18;7.40;;;3.20;99.90;;;;;;5079742;28;20049;-63
2024/01/21 12:24:04;;;;;;;16.08;7.88;;;3.40;99.90;;;;;;5061528;28;20079;-63
2024/01/21 12:26:30;;;;;;;15.02;7.40;;;3.50;99.90;;;;;;5079620;28;20449;-62
2024/01/21 12:29:10;;;;;;;13.52;7.45;;;3.30;99.90;;;;;;5061451;28;20465;-63
2024/01/21 12:31:38;;;;;;;16.52;8.82;;;3.00;99.90;;;;;;5077740;28;20060;-62
2024/01/21 12:34:08;;;;;;;13.98;7.30;;;3.00;99.90;;;;;;5079220;28;20052;-63
2024/01/21 12:36:41;;;;;;;16.90;7.95;;;3.00;99.90;;;;;;5079024;28;20037;-63
2024/01/21 12:39:11;;;;;;;15.90;7.35;;;3.00;99.90;;;;;;5079341;28;20076;-63
2024/01/21 12:41:37;;;;;;;13.77;7.63;;;3.00;99.90;;;;;;5078934;28;20049;-62
2024/01/21 12:44:03;;;;;;;15.52;7.03;;;3.60;99.90;;;;;;5079257;28;20109;-63
2024/01/21 12:46:29;;;;;;;16.45;7.55;;;3.70;99.90;;;;;;5060900;28;20110;-63
2024/01/21 12:48:55;;;;;;;16.90;8.18;;;3.80;99.90;;;;;;5078608;28;20045;-63